Latest Weather Observations for Lochington

IDQ60801

Issued at 10:35 pm EST Thursday 24 April 2014 (issued every 30 minutes, with the page automatically refreshed every 10 minutes)

About weather observations | Map of weather stations | Latest weather observations for QLD | Other Formats
Station Details ID: 035139 Name: LOCHINGTON Lat: -23.94 Lon: 147.53 Height: 267.19 m
Data from the previous 72 hours. | See also: Recent months at Lochington
Date/Time
EST
Temp
°C
App
Temp
°C
Dew
Point
Rel
Hum
%
Delta-T
°C
Wind Press
QNH
hPa
Press
MSL
hPa
Rain
since 9 am
mm
Dir
 
Spd
km/h
Gust
km/h
Spd
kts
Gust
kts
24/10:30pm 18.5 17.1 7.3 48 5.7 E 4 4 2 2 1015.7 - 0.0
24/10:00pm 19.6 18.3 7.7 46 6.2 E 4 6 2 3 1015.6 1014.4 0.0
24/09:30pm 20.0 18.8 8.0 46 6.3 E 4 6 2 3 1015.6 - 0.0
24/09:00pm 20.0 18.6 7.1 43 6.6 E 4 4 2 2 1015.4 1014.2 0.0
24/08:30pm 22.6 21.4 8.0 39 7.8 E 4 6 2 3 1015.3 - 0.0
24/08:00pm 22.9 21.2 7.4 37 8.2 E 6 6 3 3 1015.0 1013.8 0.0
24/07:30pm 23.6 21.9 7.7 36 8.5 E 6 7 3 4 1014.6 - 0.0
24/07:00pm 23.9 22.0 7.5 35 8.7 E 7 7 4 4 1014.3 1013.1 0.0
24/06:30pm 24.9 23.0 7.5 33 9.3 E 7 9 4 5 1014.0 - 0.0
24/06:00pm 25.8 23.4 6.9 30 10.0 E 9 13 5 7 1013.6 1012.3 0.0
24/05:30pm 28.0 25.1 6.7 26 11.4 ENE 11 15 6 8 1013.4 - 0.0
24/05:00pm 29.1 25.7 5.9 23 12.3 E 13 22 7 12 1012.9 1011.6 0.0
24/04:30pm 29.8 27.1 5.8 22 12.8 ESE 9 19 5 10 1012.9 - 0.0
24/04:00pm 30.3 27.7 6.2 22 13.0 ESE 9 15 5 8 1012.8 1011.5 0.0
24/03:30pm 30.7 26.0 5.9 21 13.3 SE 20 28 11 15 1012.8 - 0.0
24/03:00pm 30.6 26.0 5.8 21 13.3 SE 19 32 10 17 1012.8 1011.5 0.0
24/02:30pm 30.3 26.2 6.2 22 13.0 SE 17 26 9 14 1013.0 - 0.0
24/02:00pm 31.2 27.5 6.3 21 13.5 ESE 15 26 8 14 1013.4 1012.1 0.0
24/01:30pm 30.2 27.8 6.8 23 12.7 SE 9 13 5 7 1013.5 - 0.0
24/01:00pm 29.2 26.7 8.3 27 11.6 ESE 11 17 6 9 1014.0 1012.8 0.0
24/12:30pm 29.6 28.3 11.2 32 10.7 SE 9 15 5 8 1014.6 - 0.0
24/12:00pm 28.5 27.4 12.0 36 9.7 ENE 9 19 5 10 1015.2 1014.0 0.0
24/11:30am 28.1 27.7 14.0 42 8.5 NE 9 17 5 9 1015.9 - 0.0
24/11:00am 27.3 27.7 16.3 51 6.9 ENE 9 17 5 9 1016.7 1015.4 0.0
24/10:30am 25.7 26.3 15.7 54 6.1 NE 7 15 4 8 1017.2 - 0.0
24/10:00am 24.9 25.9 16.9 61 5.0 E 7 13 4 7 1017.7 1016.5 0.0
24/09:30am 24.0 25.5 17.7 68 4.0 ENE 6 11 3 6 1017.9 - 0.0
24/09:00am 22.5 23.8 17.2 72 3.3 ENE 6 11 3 6 1017.9 1016.7 0.0
24/08:30am 21.3 22.7 16.5 74 2.9 SE 4 7 2 4 1017.4 - 0.0
24/08:00am 19.4 21.3 16.8 85 1.6 SSE 2 7 1 4 1017.2 1016.0 0.0
24/07:30am 17.2 18.1 14.1 82 1.8 W 2 4 1 2 1017.0 - 0.0
24/07:00am 15.5 15.7 13.2 86 1.3 WNW 4 4 2 2 1016.8 1015.5 0.0
24/06:30am 13.9 13.9 11.1 83 1.5 WSW 2 4 1 2 1016.4 - 0.0
24/06:00am 14.8 15.0 11.9 83 1.6 WNW 2 4 1 2 1016.2 1014.9 0.0
24/05:30am 16.2 16.5 13.5 84 1.5 E 4 6 2 3 1015.6 - 0.0
24/05:00am 17.1 18.0 15.1 88 1.2 ESE 4 4 2 2 1015.3 1014.1 0.0
24/04:30am 16.9 17.1 14.2 84 1.6 E 6 6 3 3 1015.0 - 0.0
24/04:00am 17.6 18.1 14.9 84 1.6 E 6 7 3 4 1015.2 1014.0 0.0
24/03:30am 17.3 17.4 13.8 80 2.0 ESE 6 6 3 3 1015.1 - 0.0
24/03:00am 17.5 17.2 13.4 77 2.3 E 7 7 4 4 1015.2 1014.0 0.0
24/02:30am 17.6 17.3 12.7 73 2.8 E 6 7 3 4 1015.5 - 0.0
24/02:00am 18.5 17.5 13.4 72 2.9 E 11 13 6 7 1015.5 1014.3 0.0
24/01:30am 18.3 17.9 13.0 71 3.0 E 7 9 4 5 1015.5 - 0.0
24/01:00am 17.8 17.7 12.0 69 3.2 E 4 6 2 3 1015.9 1014.7 0.0
24/12:30am 17.8 17.0 11.1 65 3.7 ENE 6 7 3 4 1016.2 - 0.0
24/12:00am 19.7 19.2 12.2 62 4.2 E 6 7 3 4 1016.6 1015.3 0.0
 
Date/Time
EST
Temp
°C
App
Temp
°C
Dew
Point
Rel
Hum
%
Delta-T
°C
Wind Press
QNH
hPa
Press
MSL
hPa
Rain
since 9 am
mm
Dir
 
Spd
km/h
Gust
km/h
Spd
kts
Gust
kts
23/11:30pm 19.9 19.4 11.9 60 4.5 E 6 7 3 4 1016.6 - 0.0
23/11:00pm 20.3 19.5 11.2 56 5.1 E 6 7 3 4 1016.8 1015.5 0.0
23/10:30pm 20.8 19.9 11.2 54 5.4 E 7 7 4 4 1016.8 - 0.0
23/10:00pm 21.1 20.1 10.9 52 5.7 E 7 7 4 4 1016.8 1015.5 0.0
23/09:30pm 21.3 20.4 10.5 50 6.0 E 6 7 3 4 1016.9 - 0.0
23/09:00pm 23.3 22.4 11.4 47 6.7 ENE 7 11 4 6 1016.9 1015.6 0.0
23/08:30pm 23.4 22.3 10.8 45 7.1 ENE 7 9 4 5 1016.8 - 0.0
23/08:00pm 23.3 22.5 11.0 46 6.9 E 6 7 3 4 1016.3 1015.0 0.0
23/07:30pm 23.1 22.2 11.2 47 6.7 E 7 7 4 4 1015.9 - 0.0
23/07:00pm 23.6 22.6 10.3 43 7.4 ENE 6 7 3 4 1015.6 1014.4 0.0
23/06:30pm 25.0 23.9 10.8 41 8.0 ENE 7 11 4 6 1015.2 - 0.0
23/06:00pm 25.7 24.5 10.3 38 8.7 ENE 7 9 4 5 1014.9 1013.7 0.0
23/05:30pm 27.1 26.0 10.8 36 9.3 NE 7 11 4 6 1014.6 - 0.0
23/05:00pm 27.4 26.3 10.6 35 9.6 NE 7 9 4 5 1014.2 1013.0 0.0
23/04:30pm 28.8 27.4 10.9 33 10.3 ENE 9 13 5 7 1014.1 - 0.0
23/04:00pm 29.2 27.8 10.8 32 10.6 ENE 9 13 5 7 1014.0 1012.8 0.0
23/03:30pm 28.2 26.0 10.9 34 10.0 ENE 13 19 7 10 1014.3 - 0.0
23/03:00pm 29.9 27.7 10.9 31 11.0 E 13 24 7 13 1014.4 1013.2 0.0
23/02:30pm 28.7 27.8 11.3 34 10.1 ENE 7 13 4 7 1014.6 - 0.0
23/02:00pm 29.5 29.1 12.9 36 9.9 ENE 7 15 4 8 1014.9 1013.7 0.0
23/01:30pm 28.6 28.6 12.5 37 9.5 S 4 15 2 8 1015.2 - 0.0
23/01:00pm 28.1 27.6 12.8 38 9.1 NE 7 17 4 9 1015.6 1014.4 0.0
23/12:30pm 27.2 26.0 12.8 41 8.5 SE 11 17 6 9 1016.3 - 0.0
23/12:00pm 27.2 26.4 13.9 44 8.0 ENE 11 19 6 10 1016.9 1015.6 0.0
23/11:30am 26.5 25.9 13.6 45 7.7 E 9 20 5 11 1017.4 - 0.0
23/11:00am 26.3 25.9 14.1 47 7.3 E 9 17 5 9 1018.1 1016.9 0.0
23/10:30am 25.1 24.4 14.3 51 6.5 NE 11 24 6 13 1018.5 - 0.0
23/10:00am 24.9 24.5 15.2 54 5.9 E 11 17 6 9 1018.7 1017.5 0.0
23/09:30am 23.9 23.8 14.9 57 5.4 E 9 17 5 9 1018.9 - 0.0
23/09:00am 22.6 22.0 14.7 61 4.7 E 11 17 6 9 1018.8 1017.6 0.0
23/08:30am 21.5 21.7 14.6 65 4.1 E 7 13 4 7 1018.8 - 0.0
23/08:00am 20.0 20.7 14.6 71 3.2 SE 4 6 2 3 1018.7 1017.5 0.0
23/07:30am 17.1 17.8 13.4 79 2.1 SW 2 4 1 2 1018.5 - 0.0
23/07:00am 16.4 17.4 13.1 81 1.9 CALM 0 0 0 0 1018.3 1017.1 0.0
23/06:30am 15.7 16.5 12.5 81 1.8 CALM 0 6 0 3 1018.1 - 0.0
23/06:00am 16.8 16.9 12.7 77 2.3 E 4 4 2 2 1017.6 1016.4 0.0
23/05:30am 17.6 18.3 13.3 76 2.5 E 2 6 1 3 1017.5 - 0.0
23/05:00am 17.9 18.8 13.0 73 2.8 CALM 0 0 0 0 1017.4 1016.2 0.0
23/04:30am 18.5 18.4 13.4 72 2.9 NE 6 7 3 4 1017.1 - 0.0
23/04:00am 19.1 18.9 13.7 71 3.1 ENE 7 7 4 4 1016.9 1015.6 0.0
23/03:30am 18.9 18.8 13.3 70 3.2 E 6 7 3 4 1016.9 - 0.0
23/03:00am 19.7 19.6 13.9 69 3.4 ENE 7 11 4 6 1017.0 1015.8 0.0
23/02:30am 20.1 20.0 14.0 68 3.6 ENE 7 9 4 5 1017.3 - 0.0
23/02:00am 20.3 20.2 14.0 67 3.7 ENE 7 11 4 6 1017.6 1016.4 0.0
23/01:30am 20.6 20.3 14.3 67 3.7 E 9 13 5 7 1017.6 - 0.0
23/01:00am 20.7 20.2 13.9 65 4.0 E 9 13 5 7 1017.7 1016.5 0.0
23/12:30am 20.8 20.1 13.3 62 4.3 E 9 11 5 6 1017.9 - 0.0
23/12:00am 20.9 20.2 12.1 57 5.0 E 7 11 4 6 1018.1 1016.9 0.0
 
Date/Time
EST
Temp
°C
App
Temp
°C
Dew
Point
Rel
Hum
%
Delta-T
°C
Wind Press
QNH
hPa
Press
MSL
hPa
Rain
since 9 am
mm
Dir
 
Spd
km/h
Gust
km/h
Spd
kts
Gust
kts
22/11:30pm 20.3 18.8 9.2 49 6.0 E 7 11 4 6 1018.1 - 0.0
22/11:00pm 20.8 19.2 8.8 46 6.4 E 7 9 4 5 1018.3 1017.1 0.0
22/10:30pm 21.0 19.5 8.3 44 6.7 E 6 7 3 4 1018.2 - 0.0
22/10:00pm 20.9 19.4 6.8 40 7.2 E 4 6 2 3 1018.2 1017.0 0.0
22/09:30pm 21.1 19.2 6.6 39 7.4 ESE 6 6 3 3 1018.2 - 0.0
22/09:00pm 20.8 18.6 6.4 39 7.3 E 7 7 4 4 1018.2 1017.0 0.0
22/08:30pm 21.6 19.6 6.3 37 7.8 E 6 7 3 4 1018.2 - 0.0
22/08:00pm 22.5 19.9 6.3 35 8.3 E 9 11 5 6 1018.1 1016.9 0.0
22/07:30pm 22.3 20.5 5.3 33 8.6 ESE 4 4 2 2 1017.8 - 0.0
22/07:00pm 23.2 21.7 5.2 31 9.1 ESE 2 4 1 2 1017.4 1016.2 0.0
22/06:30pm 23.8 21.9 4.7 29 9.6 ESE 4 4 2 2 1017.0 - 0.0
22/06:00pm 25.2 22.7 4.9 27 10.4 ENE 7 9 4 5 1016.7 1015.4 0.0
22/05:30pm 26.6 23.9 5.5 26 11.0 ENE 9 13 5 7 1016.4 - 0.0
22/05:00pm 27.8 24.8 6.0 25 11.5 ENE 11 17 6 9 1016.2 1014.9 0.0
22/04:30pm 28.5 25.0 5.4 23 12.1 ENE 13 19 7 10 1016.0 - 0.0
22/04:00pm 28.5 24.8 4.7 22 12.3 NE 13 20 7 11 1016.0 1014.8 0.0
22/03:30pm 29.3 26.6 5.4 22 12.6 E 9 20 5 11 1016.2 - 0.0
22/03:00pm 28.9 26.1 5.1 22 12.5 E 9 19 5 10 1016.4 1015.1 0.0
22/02:30pm 29.5 27.2 7.4 25 12.1 E 9 19 5 10 1016.4 - 0.0
22/02:00pm 28.6 25.5 7.2 26 11.6 ESE 13 20 7 11 1016.8 1015.5 0.0
22/01:30pm 28.1 24.0 7.9 28 11.1 ENE 19 22 10 12 1017.1 - 0.0
22/01:00pm 27.8 25.2 7.6 28 11.0 ESE 11 19 6 10 1017.6 1016.4 0.0
22/12:30pm 27.6 25.4 8.0 29 10.7 E 9 22 5 12 1018.2 - 0.0
22/12:00pm 27.5 25.8 9.8 33 9.9 ENE 9 19 5 10 1018.8 1017.6 0.0
22/11:30am 26.7 23.7 9.1 33 9.8 NE 15 24 8 13 1019.7 - 0.0
22/11:00am 26.0 23.0 10.6 38 8.7 ENE 17 26 9 14 1020.3 1019.1 0.0
22/10:30am 25.4 22.9 11.2 41 8.1 ENE 15 20 8 11 1020.7 - 0.0
22/10:00am 25.1 23.7 12.3 45 7.4 ENE 11 17 6 9 1021.0 1019.8 0.0
22/09:30am 22.8 21.5 12.4 52 6.0 NE 11 20 6 11 1021.3 - 0.0
22/09:00am 22.5 21.5 13.3 56 5.4 E 11 19 6 10 1021.2 1020.0 0.0
22/08:30am 20.8 20.5 13.3 62 4.3 E 7 11 4 6 1021.0 - 0.0
22/08:00am 17.9 18.7 12.4 70 3.1 CALM 0 0 0 0 1021.0 1019.8 0.0
22/07:30am 15.1 15.5 11.1 77 2.2 CALM 0 2 0 1 1020.8 - 0.0
22/07:00am 12.7 11.5 9.7 82 1.5 WNW 6 6 3 3 1020.5 1019.3 0.0
22/06:30am 12.9 12.2 9.9 82 1.6 WNW 4 6 2 3 1020.2 - 0.0
22/06:00am 12.9 11.8 9.9 82 1.6 WNW 6 7 3 4 1019.8 1018.6 0.0
22/05:30am 13.3 12.3 10.3 82 1.6 WNW 6 6 3 3 1019.6 - 0.0
22/05:00am 13.3 13.3 9.9 80 1.8 CALM 0 0 0 0 1019.5 1018.3 0.0
22/04:30am 14.2 13.3 9.2 72 2.6 E 4 6 2 3 1019.4 - 0.0
22/04:00am 15.5 14.1 10.9 74 2.5 E 9 9 5 5 1019.3 1018.1 0.0
22/03:30am 16.4 14.6 10.9 70 3.0 ENE 11 15 6 8 1019.1 - 0.0
22/03:00am 16.8 15.5 11.3 70 3.0 ENE 9 11 5 6 1019.1 1017.9 0.0
22/02:30am 16.2 15.3 10.5 69 3.1 E 6 7 3 4 1019.1 - 0.0
22/02:00am 17.5 15.8 11.1 66 3.5 ENE 11 13 6 7 1019.4 1018.2 0.0
22/01:30am 17.5 16.2 11.3 67 3.4 E 9 11 5 6 1019.4 - 0.0
22/01:00am 17.5 16.5 10.4 63 3.8 E 6 6 3 3 1019.5 1018.3 0.0
22/12:30am 17.9 16.7 10.3 61 4.1 E 7 9 4 5 1019.4 - 0.0
22/12:00am 18.8 17.3 10.6 59 4.5 E 9 11 5 6 1019.3 1018.1 0.0
 
Date/Time
EST
Temp
°C
App
Temp
°C
Dew
Point
Rel
Hum
%
Delta-T
°C
Wind Press
QNH
hPa
Press
MSL
hPa
Rain
since 9 am
mm
Dir
 
Spd
km/h
Gust
km/h
Spd
kts
Gust
kts
21/11:30pm 19.0 17.4 10.3 57 4.7 E 9 11 5 6 1019.2 - 0.0
21/11:00pm 20.1 18.6 10.5 54 5.3 ENE 9 11 5 6 1019.2 1018.0 0.0

Other Formats:

Comma delimited format used in spreadsheet applications
http://www.bom.gov.au/fwo/IDQ60801/IDQ60801.94399.axf

JavaScript Object Notation format (JSON) in row-major order
http://www.bom.gov.au/fwo/IDQ60801/IDQ60801.94399.json